sensor_id;sensor_type;location;lat;lon;timestamp;temperature;humidity
32446;DHT22;18899;50.748;7.102;2022-11-04T00:01:33;11.30;99.90
32446;DHT22;18899;50.748;7.102;2022-11-04T00:04:01;11.40;99.90
32446;DHT22;18899;50.748;7.102;2022-11-04T00:06:27;11.50;99.90
32446;DHT22;18899;50.748;7.102;2022-11-04T00:08:55;11.40;99.90
32446;DHT22;18899;50.748;7.102;2022-11-04T00:11:21;11.40;99.90
32446;DHT22;18899;50.748;7.102;2022-11-04T00:14:07;11.50;99.90
32446;DHT22;18899;50.748;7.102;2022-11-04T00:16:33;11.40;99.90
32446;DHT22;18899;50.748;7.102;2022-11-04T00:19:18;11.30;99.90
32446;DHT22;18899;50.748;7.102;2022-11-04T00:21:44;11.20;99.90
32446;DHT22;18899;50.748;7.102;2022-11-04T00:24:28;11.20;99.90
32446;DHT22;18899;50.748;7.102;2022-11-04T00:27:14;11.30;99.90
32446;DHT22;18899;50.748;7.102;2022-11-04T00:29:59;11.20;99.90
32446;DHT22;18899;50.748;7.102;2022-11-04T00:32:24;11.20;99.90
32446;DHT22;18899;50.748;7.102;2022-11-04T00:35:09;11.10;99.90
32446;DHT22;18899;50.748;7.102;2022-11-04T00:37:39;11.00;99.90
32446;DHT22;18899;50.748;7.102;2022-11-04T00:40:07;11.00;99.90
32446;DHT22;18899;50.748;7.102;2022-11-04T00:42:33;10.90;99.90
32446;DHT22;18899;50.748;7.102;2022-11-04T00:44:58;10.90;99.90
32446;DHT22;18899;50.748;7.102;2022-11-04T00:47:24;11.00;99.90
32446;DHT22;18899;50.748;7.102;2022-11-04T00:49:50;11.10;99.90
32446;DHT22;18899;50.748;7.102;2022-11-04T00:52:15;11.30;99.90
32446;DHT22;18899;50.748;7.102;2022-11-04T00:54:41;11.30;99.90
32446;DHT22;18899;50.748;7.102;2022-11-04T00:57:11;11.10;99.90
32446;DHT22;18899;50.748;7.102;2022-11-04T00:59:37;11.20;99.90
32446;DHT22;18899;50.748;7.102;2022-11-04T01:02:04;11.10;99.90
32446;DHT22;18899;50.748;7.102;2022-11-04T01:04:30;11.10;99.90
32446;DHT22;18899;50.748;7.102;2022-11-04T01:06:56;11.10;99.90
32446;DHT22;18899;50.748;7.102;2022-11-04T01:09:21;11.10;99.90
32446;DHT22;18899;50.748;7.102;2022-11-04T01:11:47;11.10;99.90
32446;DHT22;18899;50.748;7.102;2022-11-04T01:14:13;11.00;99.90
32446;DHT22;18899;50.748;7.102;2022-11-04T01:16:39;11.00;99.90
32446;DHT22;18899;50.748;7.102;2022-11-04T01:19:05;11.00;99.90
32446;DHT22;18899;50.748;7.102;2022-11-04T01:21:30;11.00;99.90
32446;DHT22;18899;50.748;7.102;2022-11-04T01:23:56;10.90;99.90
32446;DHT22;18899;50.748;7.102;2022-11-04T01:26:23;11.00;99.90
32446;DHT22;18899;50.748;7.102;2022-11-04T01:28:51;10.90;99.90
32446;DHT22;18899;50.748;7.102;2022-11-04T01:31:21;10.90;99.90
32446;DHT22;18899;50.748;7.102;2022-11-04T01:33:48;10.80;99.90
32446;DHT22;18899;50.748;7.102;2022-11-04T01:36:14;10.80;99.90
32446;DHT22;18899;50.748;7.102;2022-11-04T01:38:39;10.80;99.90
32446;DHT22;18899;50.748;7.102;2022-11-04T01:41:06;10.70;99.90
32446;DHT22;18899;50.748;7.102;2022-11-04T01:43:44;10.60;99.90
32446;DHT22;18899;50.748;7.102;2022-11-04T01:46:16;10.70;99.90
32446;DHT22;18899;50.748;7.102;2022-11-04T01:48:45;10.70;99.90
32446;DHT22;18899;50.748;7.102;2022-11-04T01:51:12;10.60;99.90
32446;DHT22;18899;50.748;7.102;2022-11-04T01:53:39;10.60;99.90
32446;DHT22;18899;50.748;7.102;2022-11-04T01:56:08;10.60;99.90
32446;DHT22;18899;50.748;7.102;2022-11-04T01:58:38;10.50;99.90
32446;DHT22;18899;50.748;7.102;2022-11-04T02:01:05;10.50;99.90
32446;DHT22;18899;50.748;7.102;2022-11-04T02:03:35;10.40;99.90
32446;DHT22;18899;50.748;7.102;2022-11-04T02:06:02;10.40;99.90
32446;DHT22;18899;50.748;7.102;2022-11-04T02:08:28;10.40;99.90
32446;DHT22;18899;50.748;7.102;2022-11-04T02:10:58;10.30;99.90
32446;DHT22;18899;50.748;7.102;2022-11-04T02:13:24;10.20;99.90
32446;DHT22;18899;50.748;7.102;2022-11-04T02:21:48;10.10;99.90
32446;DHT22;18899;50.748;7.102;2022-11-04T02:27:42;10.30;99.90
32446;DHT22;18899;50.748;7.102;2022-11-04T02:30:14;10.30;99.90
32446;DHT22;18899;50.748;7.102;2022-11-04T02:40:24;9.90;99.90
32446;DHT22;18899;50.748;7.102;2022-11-04T02:45:48;9.90;99.90
32446;DHT22;18899;50.748;7.102;2022-11-04T02:48:34;9.90;99.90
32446;DHT22;18899;50.748;7.102;2022-11-04T02:51:10;9.90;99.90
32446;DHT22;18899;50.748;7.102;2022-11-04T02:56:41;10.00;99.90
32446;DHT22;18899;50.748;7.102;2022-11-04T02:59:17;9.90;99.90
32446;DHT22;18899;50.748;7.102;2022-11-04T03:01:45;9.90;99.90
32446;DHT22;18899;50.748;7.102;2022-11-04T03:04:19;10.00;99.90
32446;DHT22;18899;50.748;7.102;2022-11-04T03:06:48;9.90;99.90
32446;DHT22;18899;50.748;7.102;2022-11-04T03:09:14;9.90;99.90
32446;DHT22;18899;50.748;7.102;2022-11-04T03:11:43;9.90;99.90
32446;DHT22;18899;50.748;7.102;2022-11-04T03:14:15;9.90;99.90
32446;DHT22;18899;50.748;7.102;2022-11-04T03:16:46;10.00;99.90
32446;DHT22;18899;50.748;7.102;2022-11-04T03:21:50;10.10;99.90
32446;DHT22;18899;50.748;7.102;2022-11-04T03:24:17;10.00;99.90
32446;DHT22;18899;50.748;7.102;2022-11-04T03:26:54;9.90;99.90
32446;DHT22;18899;50.748;7.102;2022-11-04T03:29:32;9.90;99.90
32446;DHT22;18899;50.748;7.102;2022-11-04T03:32:17;10.00;99.90
32446;DHT22;18899;50.748;7.102;2022-11-04T03:34:45;9.90;99.90
32446;DHT22;18899;50.748;7.102;2022-11-04T03:37:10;9.90;99.90
32446;DHT22;18899;50.748;7.102;2022-11-04T03:39:36;9.90;99.90
32446;DHT22;18899;50.748;7.102;2022-11-04T03:42:06;9.90;99.90
32446;DHT22;18899;50.748;7.102;2022-11-04T03:44:49;9.80;99.90
32446;DHT22;18899;50.748;7.102;2022-11-04T03:47:16;9.80;99.90
32446;DHT22;18899;50.748;7.102;2022-11-04T03:49:44;9.70;99.90
32446;DHT22;18899;50.748;7.102;2022-11-04T03:52:10;9.80;99.90
32446;DHT22;18899;50.748;7.102;2022-11-04T03:54:36;9.80;99.90
32446;DHT22;18899;50.748;7.102;2022-11-04T04:03:05;9.40;99.90
32446;DHT22;18899;50.748;7.102;2022-11-04T04:05:42;9.40;99.90
32446;DHT22;18899;50.748;7.102;2022-11-04T04:08:49;9.50;99.90
32446;DHT22;18899;50.748;7.102;2022-11-04T04:17:31;9.30;99.90
32446;DHT22;18899;50.748;7.102;2022-11-04T04:20:01;9.20;99.90
32446;DHT22;18899;50.748;7.102;2022-11-04T04:22:30;9.00;99.90
32446;DHT22;18899;50.748;7.102;2022-11-04T04:24:59;8.90;99.90
32446;DHT22;18899;50.748;7.102;2022-11-04T04:27:46;8.80;99.90
32446;DHT22;18899;50.748;7.102;2022-11-04T04:30:14;8.90;99.90
32446;DHT22;18899;50.748;7.102;2022-11-04T04:35:09;9.00;99.90
32446;DHT22;18899;50.748;7.102;2022-11-04T04:37:56;8.90;99.90
32446;DHT22;18899;50.748;7.102;2022-11-04T04:40:48;8.90;99.90
32446;DHT22;18899;50.748;7.102;2022-11-04T04:43:40;8.90;99.90
32446;DHT22;18899;50.748;7.102;2022-11-04T04:46:25;8.90;99.90
32446;DHT22;18899;50.748;7.102;2022-11-04T04:48:51;8.90;99.90
32446;DHT22;18899;50.748;7.102;2022-11-04T04:51:17;9.00;99.90
32446;DHT22;18899;50.748;7.102;2022-11-04T04:53:42;9.10;99.90
32446;DHT22;18899;50.748;7.102;2022-11-04T04:56:08;9.20;99.90
32446;DHT22;18899;50.748;7.102;2022-11-04T04:58:33;9.30;99.90
32446;DHT22;18899;50.748;7.102;2022-11-04T05:00:59;9.60;99.90
32446;DHT22;18899;50.748;7.102;2022-11-04T05:03:24;9.70;99.90
32446;DHT22;18899;50.748;7.102;2022-11-04T05:05:50;9.70;99.90
32446;DHT22;18899;50.748;7.102;2022-11-04T05:08:15;9.70;99.90
32446;DHT22;18899;50.748;7.102;2022-11-04T05:10:41;9.80;99.90
32446;DHT22;18899;50.748;7.102;2022-11-04T05:13:06;9.80;99.90
32446;DHT22;18899;50.748;7.102;2022-11-04T05:15:51;9.80;99.90
32446;DHT22;18899;50.748;7.102;2022-11-04T05:18:16;9.80;99.90
32446;DHT22;18899;50.748;7.102;2022-11-04T05:20:42;9.50;99.90
32446;DHT22;18899;50.748;7.102;2022-11-04T05:23:08;9.20;99.90
32446;DHT22;18899;50.748;7.102;2022-11-04T05:25:39;8.90;99.90
32446;DHT22;18899;50.748;7.102;2022-11-04T05:28:05;8.70;99.90
32446;DHT22;18899;50.748;7.102;2022-11-04T05:30:31;8.80;99.90
32446;DHT22;18899;50.748;7.102;2022-11-04T05:32:57;8.70;99.90
32446;DHT22;18899;50.748;7.102;2022-11-04T05:35:22;8.80;99.90
32446;DHT22;18899;50.748;7.102;2022-11-04T05:37:48;9.00;99.90
32446;DHT22;18899;50.748;7.102;2022-11-04T05:40:13;9.10;99.90
32446;DHT22;18899;50.748;7.102;2022-11-04T05:42:39;9.00;99.90
32446;DHT22;18899;50.748;7.102;2022-11-04T05:45:05;8.80;99.90
32446;DHT22;18899;50.748;7.102;2022-11-04T05:47:31;8.60;99.90
32446;DHT22;18899;50.748;7.102;2022-11-04T05:49:56;8.60;99.90
32446;DHT22;18899;50.748;7.102;2022-11-04T05:52:22;8.50;99.90
32446;DHT22;18899;50.748;7.102;2022-11-04T05:54:47;8.70;99.90
32446;DHT22;18899;50.748;7.102;2022-11-04T05:57:13;9.00;99.90
32446;DHT22;18899;50.748;7.102;2022-11-04T05:59:38;9.20;99.90
32446;DHT22;18899;50.748;7.102;2022-11-04T06:02:04;9.10;99.90
32446;DHT22;18899;50.748;7.102;2022-11-04T06:04:31;8.80;99.90
32446;DHT22;18899;50.748;7.102;2022-11-04T06:06:56;8.60;99.90
32446;DHT22;18899;50.748;7.102;2022-11-04T06:09:22;8.50;99.90
32446;DHT22;18899;50.748;7.102;2022-11-04T06:12:07;8.30;99.90
32446;DHT22;18899;50.748;7.102;2022-11-04T06:14:33;8.60;99.90
32446;DHT22;18899;50.748;7.102;2022-11-04T06:16:59;8.90;99.90
32446;DHT22;18899;50.748;7.102;2022-11-04T06:19:25;8.90;99.90
32446;DHT22;18899;50.748;7.102;2022-11-04T06:21:50;8.90;99.90
32446;DHT22;18899;50.748;7.102;2022-11-04T06:24:16;8.80;99.90
32446;DHT22;18899;50.748;7.102;2022-11-04T06:26:42;8.80;99.90
32446;DHT22;18899;50.748;7.102;2022-11-04T06:29:07;8.70;99.90
32446;DHT22;18899;50.748;7.102;2022-11-04T06:31:34;8.70;99.90
32446;DHT22;18899;50.748;7.102;2022-11-04T06:34:00;8.70;99.90
32446;DHT22;18899;50.748;7.102;2022-11-04T06:36:25;8.70;99.90
32446;DHT22;18899;50.748;7.102;2022-11-04T06:38:51;8.80;99.90
32446;DHT22;18899;50.748;7.102;2022-11-04T06:41:17;9.00;99.90
32446;DHT22;18899;50.748;7.102;2022-11-04T06:43:42;9.20;99.90
32446;DHT22;18899;50.748;7.102;2022-11-04T06:46:26;9.10;99.90
32446;DHT22;18899;50.748;7.102;2022-11-04T06:48:53;9.20;99.90
32446;DHT22;18899;50.748;7.102;2022-11-04T06:51:19;9.30;99.90
32446;DHT22;18899;50.748;7.102;2022-11-04T06:53:44;9.40;99.90
32446;DHT22;18899;50.748;7.102;2022-11-04T06:56:10;9.60;99.90
32446;DHT22;18899;50.748;7.102;2022-11-04T06:58:37;9.70;99.90
32446;DHT22;18899;50.748;7.102;2022-11-04T07:01:02;9.90;99.90
32446;DHT22;18899;50.748;7.102;2022-11-04T07:03:28;10.10;99.90
32446;DHT22;18899;50.748;7.102;2022-11-04T07:05:54;10.30;99.90
32446;DHT22;18899;50.748;7.102;2022-11-04T07:08:20;10.30;99.90
32446;DHT22;18899;50.748;7.102;2022-11-04T07:10:45;10.40;99.90
32446;DHT22;18899;50.748;7.102;2022-11-04T07:13:11;10.50;99.90
32446;DHT22;18899;50.748;7.102;2022-11-04T07:15:38;10.50;99.90
32446;DHT22;18899;50.748;7.102;2022-11-04T07:18:04;10.20;99.90
32446;DHT22;18899;50.748;7.102;2022-11-04T07:20:32;10.00;99.90
32446;DHT22;18899;50.748;7.102;2022-11-04T07:22:57;9.90;99.90
32446;DHT22;18899;50.748;7.102;2022-11-04T07:25:23;9.80;99.90
32446;DHT22;18899;50.748;7.102;2022-11-04T07:27:48;9.90;99.90
32446;DHT22;18899;50.748;7.102;2022-11-04T07:30:14;9.80;99.90
32446;DHT22;18899;50.748;7.102;2022-11-04T07:32:40;9.70;99.90
32446;DHT22;18899;50.748;7.102;2022-11-04T07:35:05;10.10;99.90
32446;DHT22;18899;50.748;7.102;2022-11-04T07:37:31;10.40;99.90
32446;DHT22;18899;50.748;7.102;2022-11-04T07:39:57;10.60;99.90
32446;DHT22;18899;50.748;7.102;2022-11-04T07:42:23;10.60;99.90
32446;DHT22;18899;50.748;7.102;2022-11-04T07:44:48;10.60;99.90
32446;DHT22;18899;50.748;7.102;2022-11-04T07:47:14;10.70;99.90
32446;DHT22;18899;50.748;7.102;2022-11-04T07:49:39;10.70;99.90
32446;DHT22;18899;50.748;7.102;2022-11-04T07:52:05;11.00;99.90
32446;DHT22;18899;50.748;7.102;2022-11-04T07:54:30;11.00;99.90
32446;DHT22;18899;50.748;7.102;2022-11-04T07:56:56;10.90;99.90
32446;DHT22;18899;50.748;7.102;2022-11-04T07:59:22;10.80;99.90
32446;DHT22;18899;50.748;7.102;2022-11-04T08:01:48;10.60;99.90
32446;DHT22;18899;50.748;7.102;2022-11-04T08:04:13;10.60;99.90
32446;DHT22;18899;50.748;7.102;2022-11-04T08:06:39;10.80;99.90
32446;DHT22;18899;50.748;7.102;2022-11-04T08:09:04;10.90;99.90
32446;DHT22;18899;50.748;7.102;2022-11-04T08:11:30;10.90;99.90
32446;DHT22;18899;50.748;7.102;2022-11-04T08:13:55;11.00;99.90
32446;DHT22;18899;50.748;7.102;2022-11-04T08:16:22;11.10;99.90
32446;DHT22;18899;50.748;7.102;2022-11-04T08:18:49;11.20;99.90
32446;DHT22;18899;50.748;7.102;2022-11-04T08:21:17;11.70;99.90
32446;DHT22;18899;50.748;7.102;2022-11-04T08:23:43;12.20;99.90
32446;DHT22;18899;50.748;7.102;2022-11-04T08:26:12;12.30;99.90
32446;DHT22;18899;50.748;7.102;2022-11-04T08:28:39;12.30;99.90
32446;DHT22;18899;50.748;7.102;2022-11-04T08:31:08;12.30;99.90
32446;DHT22;18899;50.748;7.102;2022-11-04T08:33:35;12.40;99.90
32446;DHT22;18899;50.748;7.102;2022-11-04T08:36:06;12.50;99.90
32446;DHT22;18899;50.748;7.102;2022-11-04T08:38:33;12.60;99.90
32446;DHT22;18899;50.748;7.102;2022-11-04T08:41:01;12.60;99.90
32446;DHT22;18899;50.748;7.102;2022-11-04T08:43:29;12.60;99.90
32446;DHT22;18899;50.748;7.102;2022-11-04T08:45:55;12.80;99.90
32446;DHT22;18899;50.748;7.102;2022-11-04T08:48:21;13.00;99.90
32446;DHT22;18899;50.748;7.102;2022-11-04T08:50:55;13.20;99.90
32446;DHT22;18899;50.748;7.102;2022-11-04T08:53:21;13.40;99.90
32446;DHT22;18899;50.748;7.102;2022-11-04T08:55:47;13.40;99.90
32446;DHT22;18899;50.748;7.102;2022-11-04T08:58:12;13.50;99.90
32446;DHT22;18899;50.748;7.102;2022-11-04T09:00:38;13.70;99.90
32446;DHT22;18899;50.748;7.102;2022-11-04T09:03:04;14.20;99.90
32446;DHT22;18899;50.748;7.102;2022-11-04T09:05:29;14.70;99.90
32446;DHT22;18899;50.748;7.102;2022-11-04T09:07:55;15.20;99.90
32446;DHT22;18899;50.748;7.102;2022-11-04T09:10:21;15.60;99.90
32446;DHT22;18899;50.748;7.102;2022-11-04T09:12:47;15.50;99.90
32446;DHT22;18899;50.748;7.102;2022-11-04T09:15:12;15.30;99.90
32446;DHT22;18899;50.748;7.102;2022-11-04T09:17:38;15.00;99.90
32446;DHT22;18899;50.748;7.102;2022-11-04T09:20:05;14.70;99.90
32446;DHT22;18899;50.748;7.102;2022-11-04T09:22:31;14.30;99.90
32446;DHT22;18899;50.748;7.102;2022-11-04T09:24:57;14.50;99.90
32446;DHT22;18899;50.748;7.102;2022-11-04T09:27:22;14.80;99.90
32446;DHT22;18899;50.748;7.102;2022-11-04T09:29:48;14.90;99.90
32446;DHT22;18899;50.748;7.102;2022-11-04T09:32:14;15.30;99.90
32446;DHT22;18899;50.748;7.102;2022-11-04T09:34:39;15.70;99.90
32446;DHT22;18899;50.748;7.102;2022-11-04T09:37:05;16.30;99.90
32446;DHT22;18899;50.748;7.102;2022-11-04T09:39:31;16.50;99.90
32446;DHT22;18899;50.748;7.102;2022-11-04T09:42:35;16.40;99.90
32446;DHT22;18899;50.748;7.102;2022-11-04T09:45:08;16.00;99.90
32446;DHT22;18899;50.748;7.102;2022-11-04T09:47:35;15.80;99.90
32446;DHT22;18899;50.748;7.102;2022-11-04T09:50:02;15.80;99.90
32446;DHT22;18899;50.748;7.102;2022-11-04T09:52:37;15.80;99.90
32446;DHT22;18899;50.748;7.102;2022-11-04T09:55:26;15.80;99.90
32446;DHT22;18899;50.748;7.102;2022-11-04T09:57:55;15.60;99.90
32446;DHT22;18899;50.748;7.102;2022-11-04T10:00:23;15.60;99.90
32446;DHT22;18899;50.748;7.102;2022-11-04T10:02:56;15.70;99.90
32446;DHT22;18899;50.748;7.102;2022-11-04T10:08:43;15.90;99.90
32446;DHT22;18899;50.748;7.102;2022-11-04T10:14:09;15.90;99.90
32446;DHT22;18899;50.748;7.102;2022-11-04T10:17:04;16.10;99.90
32446;DHT22;18899;50.748;7.102;2022-11-04T10:22:17;15.90;99.90
32446;DHT22;18899;50.748;7.102;2022-11-04T10:25:02;15.80;99.90
32446;DHT22;18899;50.748;7.102;2022-11-04T10:27:32;15.60;99.90
32446;DHT22;18899;50.748;7.102;2022-11-04T10:30:02;15.50;99.90
32446;DHT22;18899;50.748;7.102;2022-11-04T10:32:43;15.40;99.90
32446;DHT22;18899;50.748;7.102;2022-11-04T10:37:39;15.60;99.90
32446;DHT22;18899;50.748;7.102;2022-11-04T10:40:32;15.70;99.90
32446;DHT22;18899;50.748;7.102;2022-11-04T10:43:05;15.60;99.90
32446;DHT22;18899;50.748;7.102;2022-11-04T10:45:50;15.60;99.90
32446;DHT22;18899;50.748;7.102;2022-11-04T10:48:26;15.80;99.90
32446;DHT22;18899;50.748;7.102;2022-11-04T10:50:55;15.80;99.90
32446;DHT22;18899;50.748;7.102;2022-11-04T10:53:26;15.70;99.90
32446;DHT22;18899;50.748;7.102;2022-11-04T10:56:00;15.80;99.90
32446;DHT22;18899;50.748;7.102;2022-11-04T10:58:30;15.90;99.90
32446;DHT22;18899;50.748;7.102;2022-11-04T11:00:56;16.10;99.90
32446;DHT22;18899;50.748;7.102;2022-11-04T11:03:40;16.10;99.90
32446;DHT22;18899;50.748;7.102;2022-11-04T11:06:31;16.00;99.90
32446;DHT22;18899;50.748;7.102;2022-11-04T11:11:50;16.20;99.90
32446;DHT22;18899;50.748;7.102;2022-11-04T11:16:52;16.30;99.90
32446;DHT22;18899;50.748;7.102;2022-11-04T11:19:23;16.30;99.90
32446;DHT22;18899;50.748;7.102;2022-11-04T11:21:55;16.50;99.90
32446;DHT22;18899;50.748;7.102;2022-11-04T11:24:27;16.70;99.90
32446;DHT22;18899;50.748;7.102;2022-11-04T11:27:09;16.80;99.90
32446;DHT22;18899;50.748;7.102;2022-11-04T11:29:39;16.90;99.90
32446;DHT22;18899;50.748;7.102;2022-11-04T11:32:39;17.00;99.90
32446;DHT22;18899;50.748;7.102;2022-11-04T11:35:15;16.90;99.90
32446;DHT22;18899;50.748;7.102;2022-11-04T11:37:44;16.60;99.90
32446;DHT22;18899;50.748;7.102;2022-11-04T11:40:26;16.20;99.90
32446;DHT22;18899;50.748;7.102;2022-11-04T11:42:53;15.90;99.90
32446;DHT22;18899;50.748;7.102;2022-11-04T11:45:19;15.70;99.90
32446;DHT22;18899;50.748;7.102;2022-11-04T11:47:47;15.50;99.90
32446;DHT22;18899;50.748;7.102;2022-11-04T11:52:51;15.70;99.90
32446;DHT22;18899;50.748;7.102;2022-11-04T11:55:35;15.60;99.90
32446;DHT22;18899;50.748;7.102;2022-11-04T12:12:04;14.60;99.90
32446;DHT22;18899;50.748;7.102;2022-11-04T12:14:40;14.90;99.90
32446;DHT22;18899;50.748;7.102;2022-11-04T12:22:46;15.10;99.90
32446;DHT22;18899;50.748;7.102;2022-11-04T12:33:38;15.00;99.90
32446;DHT22;18899;50.748;7.102;2022-11-04T12:39:16;15.00;99.90
32446;DHT22;18899;50.748;7.102;2022-11-04T12:44:38;15.20;99.90
32446;DHT22;18899;50.748;7.102;2022-11-04T12:49:57;15.00;99.90
32446;DHT22;18899;50.748;7.102;2022-11-04T13:00:55;15.40;99.90
32446;DHT22;18899;50.748;7.102;2022-11-04T13:04:02;15.60;99.90
32446;DHT22;18899;50.748;7.102;2022-11-04T13:06:35;15.70;99.90
32446;DHT22;18899;50.748;7.102;2022-11-04T13:09:12;15.70;99.90
32446;DHT22;18899;50.748;7.102;2022-11-04T13:11:58;15.50;99.90
32446;DHT22;18899;50.748;7.102;2022-11-04T13:14:41;15.60;99.90
32446;DHT22;18899;50.748;7.102;2022-11-04T13:17:12;15.90;99.90
32446;DHT22;18899;50.748;7.102;2022-11-04T13:19:42;15.90;99.90
32446;DHT22;18899;50.748;7.102;2022-11-04T13:22:14;15.80;99.90
32446;DHT22;18899;50.748;7.102;2022-11-04T13:24:51;15.50;99.90
32446;DHT22;18899;50.748;7.102;2022-11-04T13:27:22;15.30;99.90
32446;DHT22;18899;50.748;7.102;2022-11-04T13:29:51;15.10;99.90
32446;DHT22;18899;50.748;7.102;2022-11-04T13:32:39;14.80;99.90
32446;DHT22;18899;50.748;7.102;2022-11-04T13:38:19;14.60;99.90
32446;DHT22;18899;50.748;7.102;2022-11-04T13:43:36;14.80;99.90
32446;DHT22;18899;50.748;7.102;2022-11-04T13:46:19;15.00;99.90
32446;DHT22;18899;50.748;7.102;2022-11-04T13:49:14;14.90;99.90
32446;DHT22;18899;50.748;7.102;2022-11-04T13:51:46;15.00;99.90
32446;DHT22;18899;50.748;7.102;2022-11-04T13:54:31;15.10;99.90
32446;DHT22;18899;50.748;7.102;2022-11-04T13:57:15;15.20;99.90
32446;DHT22;18899;50.748;7.102;2022-11-04T13:59:41;15.20;99.90
32446;DHT22;18899;50.748;7.102;2022-11-04T14:04:42;15.00;99.90
32446;DHT22;18899;50.748;7.102;2022-11-04T14:07:09;14.70;99.90
32446;DHT22;18899;50.748;7.102;2022-11-04T14:14:45;14.00;99.90
32446;DHT22;18899;50.748;7.102;2022-11-04T14:25:26;12.70;99.90
32446;DHT22;18899;50.748;7.102;2022-11-04T14:28:01;12.60;99.90
32446;DHT22;18899;50.748;7.102;2022-11-04T14:30:56;12.60;99.90
32446;DHT22;18899;50.748;7.102;2022-11-04T14:33:34;12.40;99.90
32446;DHT22;18899;50.748;7.102;2022-11-04T14:38:59;12.60;99.90
32446;DHT22;18899;50.748;7.102;2022-11-04T14:43:54;12.30;99.90
32446;DHT22;18899;50.748;7.102;2022-11-04T14:46:25;12.20;99.90
32446;DHT22;18899;50.748;7.102;2022-11-04T14:48:54;12.10;99.90
32446;DHT22;18899;50.748;7.102;2022-11-04T14:51:29;12.20;99.90
32446;DHT22;18899;50.748;7.102;2022-11-04T14:54:03;12.10;99.90
32446;DHT22;18899;50.748;7.102;2022-11-04T14:56:29;12.10;99.90
32446;DHT22;18899;50.748;7.102;2022-11-04T14:59:05;12.10;99.90
32446;DHT22;18899;50.748;7.102;2022-11-04T15:01:37;12.10;99.90
32446;DHT22;18899;50.748;7.102;2022-11-04T15:04:20;12.00;99.90
32446;DHT22;18899;50.748;7.102;2022-11-04T15:06:57;12.00;99.90
32446;DHT22;18899;50.748;7.102;2022-11-04T15:09:32;11.90;99.90
32446;DHT22;18899;50.748;7.102;2022-11-04T15:12:12;12.00;99.90
32446;DHT22;18899;50.748;7.102;2022-11-04T15:14:57;12.10;99.90
32446;DHT22;18899;50.748;7.102;2022-11-04T15:17:26;12.20;99.90
32446;DHT22;18899;50.748;7.102;2022-11-04T15:19:55;12.20;99.90
32446;DHT22;18899;50.748;7.102;2022-11-04T15:22:23;12.30;99.90
32446;DHT22;18899;50.748;7.102;2022-11-04T15:24:49;12.20;99.90
32446;DHT22;18899;50.748;7.102;2022-11-04T15:27:21;12.20;99.90
32446;DHT22;18899;50.748;7.102;2022-11-04T15:30:00;12.30;99.90
32446;DHT22;18899;50.748;7.102;2022-11-04T15:32:29;12.30;99.90
32446;DHT22;18899;50.748;7.102;2022-11-04T15:34:56;12.30;99.90
32446;DHT22;18899;50.748;7.102;2022-11-04T15:37:24;12.40;99.90
32446;DHT22;18899;50.748;7.102;2022-11-04T15:39:55;12.40;99.90
32446;DHT22;18899;50.748;7.102;2022-11-04T15:42:25;12.60;99.90
32446;DHT22;18899;50.748;7.102;2022-11-04T15:47:47;12.30;99.90
32446;DHT22;18899;50.748;7.102;2022-11-04T15:50:20;12.10;99.90
32446;DHT22;18899;50.748;7.102;2022-11-04T15:52:52;12.00;99.90
32446;DHT22;18899;50.748;7.102;2022-11-04T15:55:24;11.90;99.90
32446;DHT22;18899;50.748;7.102;2022-11-04T15:57:51;11.80;99.90
32446;DHT22;18899;50.748;7.102;2022-11-04T16:00:24;12.10;99.90
32446;DHT22;18899;50.748;7.102;2022-11-04T16:02:55;11.90;99.90
32446;DHT22;18899;50.748;7.102;2022-11-04T16:05:29;11.80;99.90
32446;DHT22;18899;50.748;7.102;2022-11-04T16:08:22;11.90;99.90
32446;DHT22;18899;50.748;7.102;2022-11-04T16:11:17;11.70;99.90
32446;DHT22;18899;50.748;7.102;2022-11-04T16:13:45;11.60;99.90
32446;DHT22;18899;50.748;7.102;2022-11-04T16:16:24;11.50;99.90
32446;DHT22;18899;50.748;7.102;2022-11-04T16:18:55;11.40;99.90
32446;DHT22;18899;50.748;7.102;2022-11-04T16:21:31;11.20;99.90
32446;DHT22;18899;50.748;7.102;2022-11-04T16:24:15;11.20;99.90
32446;DHT22;18899;50.748;7.102;2022-11-04T16:26:43;11.20;99.90
32446;DHT22;18899;50.748;7.102;2022-11-04T16:29:33;11.20;99.90
32446;DHT22;18899;50.748;7.102;2022-11-04T16:34:42;11.20;99.90
32446;DHT22;18899;50.748;7.102;2022-11-04T16:37:09;11.20;99.90
32446;DHT22;18899;50.748;7.102;2022-11-04T16:39:34;11.10;99.90
32446;DHT22;18899;50.748;7.102;2022-11-04T16:42:00;11.10;99.90
32446;DHT22;18899;50.748;7.102;2022-11-04T16:44:26;11.10;99.90
32446;DHT22;18899;50.748;7.102;2022-11-04T16:46:53;11.00;99.90
32446;DHT22;18899;50.748;7.102;2022-11-04T16:49:19;10.80;99.90
32446;DHT22;18899;50.748;7.102;2022-11-04T16:51:54;10.80;99.90
32446;DHT22;18899;50.748;7.102;2022-11-04T16:54:21;10.90;99.90
32446;DHT22;18899;50.748;7.102;2022-11-04T16:56:47;11.20;99.90
32446;DHT22;18899;50.748;7.102;2022-11-04T16:59:13;11.30;99.90
32446;DHT22;18899;50.748;7.102;2022-11-04T17:01:39;11.20;99.90
32446;DHT22;18899;50.748;7.102;2022-11-04T17:04:07;11.10;99.90
32446;DHT22;18899;50.748;7.102;2022-11-04T17:06:34;11.10;99.90
32446;DHT22;18899;50.748;7.102;2022-11-04T17:08:59;11.10;99.90
32446;DHT22;18899;50.748;7.102;2022-11-04T17:11:26;11.10;99.90
32446;DHT22;18899;50.748;7.102;2022-11-04T17:13:51;11.00;99.90
32446;DHT22;18899;50.748;7.102;2022-11-04T17:16:17;11.10;99.90
32446;DHT22;18899;50.748;7.102;2022-11-04T17:18:42;11.20;99.90
32446;DHT22;18899;50.748;7.102;2022-11-04T17:21:12;11.30;99.90
32446;DHT22;18899;50.748;7.102;2022-11-04T17:23:41;11.30;99.90
32446;DHT22;18899;50.748;7.102;2022-11-04T17:26:08;11.30;99.90
32446;DHT22;18899;50.748;7.102;2022-11-04T17:28:33;11.40;99.90
32446;DHT22;18899;50.748;7.102;2022-11-04T17:31:00;11.40;99.90
32446;DHT22;18899;50.748;7.102;2022-11-04T17:33:26;11.40;99.90
32446;DHT22;18899;50.748;7.102;2022-11-04T17:35:52;11.20;99.90
32446;DHT22;18899;50.748;7.102;2022-11-04T17:38:19;11.10;99.90
32446;DHT22;18899;50.748;7.102;2022-11-04T17:40:45;11.20;99.90
32446;DHT22;18899;50.748;7.102;2022-11-04T17:43:29;11.10;99.90
32446;DHT22;18899;50.748;7.102;2022-11-04T17:46:14;11.00;99.90
32446;DHT22;18899;50.748;7.102;2022-11-04T17:48:59;11.10;99.90
32446;DHT22;18899;50.748;7.102;2022-11-04T17:51:25;11.30;99.90
32446;DHT22;18899;50.748;7.102;2022-11-04T17:53:51;11.50;99.90
32446;DHT22;18899;50.748;7.102;2022-11-04T17:56:18;11.50;99.90
32446;DHT22;18899;50.748;7.102;2022-11-04T17:58:44;11.60;99.90
32446;DHT22;18899;50.748;7.102;2022-11-04T18:01:12;11.70;99.90
32446;DHT22;18899;50.748;7.102;2022-11-04T18:03:39;11.60;99.90
32446;DHT22;18899;50.748;7.102;2022-11-04T18:06:05;11.70;99.90
32446;DHT22;18899;50.748;7.102;2022-11-04T18:08:31;11.60;99.90
32446;DHT22;18899;50.748;7.102;2022-11-04T18:11:00;11.50;99.90
32446;DHT22;18899;50.748;7.102;2022-11-04T18:13:26;11.30;99.90